Mono Hot Springs, California
Current Conditions -  °F | °C
As of 7:55 PM on Tuesday 25 Nov 2014 (Local Time) from KMMH Reporting Station
Clear Clear  
Wind Chill: 41°   Ceiling: Unl
Heat Index: 41°   Visibility: 10mi
Dew Point: 18°   Wind: 0mph
Humidity: 39%   Direction: NA
Pressure: 30.56"   Gusts: NA
Location:  37.33°N, 119.02°W
Report Text: KMMH 260355Z AUTO 00000KT 10SM CLR 05/M08 A3056 RMK AO1
Loading
Personal Weather Stations






























Interactive Weather Map New forecast layout! Learn more

10-Day Weather Forecast

Advertisements
Track Severe Weather on mobile